Time;durP1;ratioP1;P1;durP2;ratioP2;P2;SDS_P1;SDS_P2;PMS_P1;PMS_P2;Temp;Humidity;BMP_temperature;BMP_pressure;BME280_temperature;BME280_humidity;BME280_pressure;Samples;Min_cycle;Max_cycle;Signal;HPM_P1;HPM_P2
2022/05/11 00:01:45;;;;;;;5.78;3.40;;;12.10;99.90;;;;;;5054826;28;20116;-78
2022/05/11 00:04:12;;;;;;;5.03;3.28;;;12.00;99.90;;;;;;5070557;28;20398;-78
2022/05/11 00:06:38;;;;;;;4.82;3.72;;;11.90;99.90;;;;;;5072589;28;20032;-79
2022/05/11 00:09:05;;;;;;;4.03;3.42;;;11.80;99.90;;;;;;5072865;28;20459;-78
2022/05/11 00:11:31;;;;;;;4.20;3.20;;;11.90;99.90;;;;;;5073322;28;20025;-78
2022/05/11 00:13:58;;;;;;;3.63;2.95;;;11.90;99.90;;;;;;5072367;28;20437;-78
2022/05/11 00:16:24;;;;;;;4.70;3.20;;;12.00;99.90;;;;;;5073450;28;20028;-78
2022/05/11 00:18:50;;;;;;;4.82;2.80;;;12.00;99.90;;;;;;5072926;28;20389;-78
2022/05/11 00:21:16;;;;;;;4.93;3.53;;;12.10;99.90;;;;;;5073327;28;20025;-78
2022/05/11 00:23:42;;;;;;;5.13;3.30;;;12.00;99.90;;;;;;5071919;28;20055;-79
2022/05/11 00:26:08;;;;;;;4.35;3.13;;;12.00;99.90;;;;;;5056816;28;20107;-78
2022/05/11 00:28:34;;;;;;;5.45;3.47;;;12.00;99.90;;;;;;5058440;28;20044;-78
2022/05/11 00:31:01;;;;;;;5.13;3.80;;;12.00;99.90;;;;;;5077929;28;20040;-78
2022/05/11 00:33:27;;;;;;;7.55;3.30;;;11.90;99.90;;;;;;5059205;28;20103;-78
2022/05/11 00:35:53;;;;;;;5.80;3.40;;;11.80;99.90;;;;;;5077500;28;20051;-78
2022/05/11 00:38:21;;;;;;;5.05;3.17;;;11.80;99.90;;;;;;5076990;28;20024;-78
2022/05/11 00:40:51;;;;;;;5.28;3.20;;;11.80;99.90;;;;;;5078159;28;20472;-78
2022/05/11 00:43:41;;;;;;;6.18;3.60;;;11.80;99.90;;;;;;5077172;28;20472;-78
2022/05/11 00:46:13;;;;;;;6.50;3.15;;;11.80;99.90;;;;;;5102708;22;20495;-83
2022/05/11 00:51:32;;;;;;;4.68;3.53;;;11.90;99.90;;;;;;5086440;28;20043;-83
2022/05/11 00:53:57;;;;;;;4.05;3.08;;;11.80;99.90;;;;;;5094852;28;20020;-84
2022/05/11 00:56:24;;;;;;;4.32;3.13;;;11.80;99.90;;;;;;5093114;28;20020;-83
2022/05/11 00:58:56;;;;;;;7.22;3.75;;;11.60;99.90;;;;;;5092946;28;20122;-83
2022/05/11 01:01:23;;;;;;;7.10;3.85;;;11.50;99.90;;;;;;5095564;28;20020;-83
2022/05/11 01:03:55;;;;;;;4.25;3.13;;;11.30;99.90;;;;;;5089665;28;20048;-83
2022/05/11 01:06:22;;;;;;;4.45;3.30;;;11.20;99.90;;;;;;5092157;28;20051;-83
2022/05/11 01:08:48;;;;;;;5.05;3.65;;;11.20;99.90;;;;;;5074837;28;20040;-83
2022/05/11 01:11:14;;;;;;;5.60;3.78;;;11.20;99.90;;;;;;5096985;28;20016;-83
2022/05/11 01:13:43;;;;;;;5.88;3.65;;;11.20;99.90;;;;;;5096045;28;20020;-83
2022/05/11 01:16:09;;;;;;;4.43;3.45;;;11.20;99.90;;;;;;5096649;28;20020;-83
2022/05/11 01:18:38;;;;;;;4.35;3.10;;;11.20;99.90;;;;;;5096164;28;20383;-83
2022/05/11 01:21:05;;;;;;;5.10;3.60;;;11.20;99.90;;;;;;5096274;28;20032;-83
2022/05/11 01:23:41;;;;;;;4.18;3.22;;;11.20;99.90;;;;;;5096711;28;20024;-83
2022/05/11 01:26:07;;;;;;;5.30;3.22;;;11.10;99.90;;;;;;5096258;28;20016;-83
2022/05/11 01:28:38;;;;;;;5.45;3.60;;;11.10;99.90;;;;;;5096293;28;20043;-83
2022/05/11 01:31:07;;;;;;;6.03;3.95;;;11.10;99.90;;;;;;5096215;28;20115;-83
2022/05/11 01:33:35;;;;;;;5.68;3.85;;;11.10;99.90;;;;;;5096734;28;20031;-83
2022/05/11 01:36:18;;;;;;;5.80;3.50;;;11.10;99.90;;;;;;5096215;28;20020;-83
2022/05/11 01:38:50;;;;;;;5.22;3.70;;;11.10;99.90;;;;;;5093879;28;20375;-83
2022/05/11 01:41:28;;;;;;;5.93;3.88;;;11.10;99.90;;;;;;5076352;28;20173;-83
2022/05/11 01:43:54;;;;;;;5.25;3.80;;;11.00;99.90;;;;;;5076868;28;20032;-83
2022/05/11 01:46:20;;;;;;;6.75;4.28;;;11.00;99.90;;;;;;5095770;28;20024;-83
2022/05/11 01:48:46;;;;;;;6.95;4.55;;;11.00;99.90;;;;;;5077826;28;20028;-83
2022/05/11 01:51:14;;;;;;;6.05;4.35;;;11.00;99.90;;;;;;5082273;28;20027;-83
2022/05/11 01:53:40;;;;;;;5.65;3.78;;;11.00;99.90;;;;;;5096001;28;20016;-83
2022/05/11 01:56:07;;;;;;;5.38;3.47;;;11.00;99.90;;;;;;5096218;28;20020;-83
2022/05/11 01:58:33;;;;;;;4.93;3.72;;;10.90;99.90;;;;;;5096077;28;20020;-83
2022/05/11 02:01:00;;;;;;;5.10;3.55;;;10.90;99.90;;;;;;5095663;28;20032;-83
2022/05/11 02:03:26;;;;;;;4.80;3.65;;;10.90;99.90;;;;;;5077434;28;20036;-83
2022/05/11 02:08:40;;;;;;;5.63;3.60;;;10.90;99.90;;;;;;5096072;28;20436;-83
2022/05/11 02:11:07;;;;;;;5.53;3.85;;;10.80;99.90;;;;;;5095751;28;20133;-83
2022/05/11 02:13:33;;;;;;;4.63;3.95;;;10.80;99.90;;;;;;5095845;28;20468;-83
2022/05/11 02:15:59;;;;;;;4.22;3.42;;;10.80;99.90;;;;;;5077508;28;20110;-83
2022/05/11 02:18:25;;;;;;;4.53;3.50;;;10.70;99.90;;;;;;5095958;28;20446;-83
2022/05/11 02:20:51;;;;;;;6.03;3.75;;;10.70;99.90;;;;;;5095344;28;20036;-83
2022/05/11 02:23:19;;;;;;;4.50;3.63;;;10.70;99.90;;;;;;5095815;28;20024;-83
2022/05/11 02:25:46;;;;;;;5.78;3.42;;;10.70;99.90;;;;;;5095676;28;20123;-83
2022/05/11 02:28:13;;;;;;;4.68;3.60;;;10.70;99.90;;;;;;5095920;28;20024;-83
2022/05/11 02:30:40;;;;;;;6.50;4.00;;;10.60;99.90;;;;;;5095376;28;20103;-83
2022/05/11 02:33:06;;;;;;;6.00;4.32;;;10.60;99.90;;;;;;5094607;28;20039;-83
2022/05/11 02:35:32;;;;;;;5.18;4.03;;;10.50;99.90;;;;;;5094978;28;20027;-83
2022/05/11 02:38:01;;;;;;;6.88;4.05;;;10.40;99.90;;;;;;5095565;28;20069;-83
2022/05/11 02:40:29;;;;;;;5.30;4.15;;;10.30;99.90;;;;;;5095197;28;20039;-83
2022/05/11 02:42:55;;;;;;;6.43;4.47;;;10.30;99.90;;;;;;5077027;28;20024;-83
2022/05/11 02:45:23;;;;;;;7.03;4.65;;;10.30;99.90;;;;;;5077152;28;20039;-83
2022/05/11 02:47:50;;;;;;;7.57;4.80;;;10.30;99.90;;;;;;5094833;28;20036;-83
2022/05/11 02:50:22;;;;;;;6.03;3.88;;;10.30;99.90;;;;;;5087649;28;20059;-83
2022/05/11 02:52:48;;;;;;;6.13;3.78;;;10.30;99.90;;;;;;5092211;28;20541;-83
2022/05/11 02:55:14;;;;;;;6.10;4.10;;;10.20;99.90;;;;;;5094913;28;20032;-83
2022/05/11 02:57:40;;;;;;;7.47;4.15;;;10.20;99.90;;;;;;5094451;28;20074;-83
2022/05/11 03:00:09;;;;;;;5.88;3.80;;;10.20;99.90;;;;;;5092338;28;20401;-83
2022/05/11 03:02:35;;;;;;;4.85;3.50;;;10.10;99.90;;;;;;5084911;28;20065;-83
2022/05/11 03:05:02;;;;;;;6.30;4.30;;;10.10;99.90;;;;;;5099181;28;20024;-83
2022/05/11 03:07:27;;;;;;;5.55;3.67;;;10.10;99.90;;;;;;5099756;28;20388;-83
2022/05/11 03:09:53;;;;;;;4.80;3.50;;;10.00;99.90;;;;;;5081445;28;20024;-83
2022/05/11 03:12:22;;;;;;;5.72;3.97;;;10.00;99.90;;;;;;5099717;28;20032;-83
2022/05/11 03:14:48;;;;;;;5.10;4.00;;;10.00;99.90;;;;;;5099780;28;20020;-83
2022/05/11 03:17:14;;;;;;;5.82;4.07;;;10.00;99.90;;;;;;5099764;28;20058;-83
2022/05/11 03:19:39;;;;;;;5.38;3.90;;;10.00;99.90;;;;;;5083345;28;20028;-83
2022/05/11 03:22:05;;;;;;;6.70;3.92;;;10.00;99.90;;;;;;5076186;28;20027;-83
2022/05/11 03:24:31;;;;;;;7.32;4.10;;;9.90;99.90;;;;;;5077077;28;20368;-83
2022/05/11 03:26:56;;;;;;;5.75;3.72;;;9.90;99.90;;;;;;5076062;28;20035;-83
2022/05/11 03:29:22;;;;;;;7.07;4.30;;;9.80;99.90;;;;;;5094549;28;20027;-83
2022/05/11 03:34:36;;;;;;;5.93;3.90;;;9.60;99.90;;;;;;5094316;28;20081;-83
2022/05/11 03:37:02;;;;;;;6.53;4.00;;;9.60;99.90;;;;;;5075500;28;20036;-83
2022/05/11 03:39:28;;;;;;;5.40;3.50;;;9.60;99.90;;;;;;5094290;28;20012;-83
2022/05/11 03:41:53;;;;;;;6.60;4.25;;;9.60;99.90;;;;;;5074612;28;20118;-83
2022/05/11 03:44:19;;;;;;;7.90;4.13;;;9.60;99.90;;;;;;5084405;28;20035;-83
2022/05/11 03:46:45;;;;;;;4.68;3.85;;;9.60;99.90;;;;;;5082607;28;20445;-82
2022/05/11 03:49:11;;;;;;;4.80;3.95;;;9.50;99.90;;;;;;5080682;28;20483;-82
2022/05/11 03:51:37;;;;;;;6.32;4.07;;;9.50;99.90;;;;;;5095308;28;20031;-83
2022/05/11 03:54:03;;;;;;;5.90;4.40;;;9.50;99.90;;;;;;5078493;28;20108;-83
2022/05/11 03:56:28;;;;;;;4.70;3.50;;;9.40;99.90;;;;;;5092252;28;20031;-84
2022/05/11 03:58:56;;;;;;;4.80;3.65;;;9.50;99.90;;;;;;5092694;28;20020;-84
2022/05/11 04:01:22;;;;;;;5.68;4.00;;;9.40;99.90;;;;;;5075235;28;20024;-83
2022/05/11 04:03:48;;;;;;;4.93;3.80;;;9.40;99.90;;;;;;5073528;28;20522;-83
2022/05/11 04:06:14;;;;;;;5.97;4.03;;;9.40;99.90;;;;;;5075383;28;20077;-84
2022/05/11 04:08:39;;;;;;;6.88;4.80;;;9.40;99.90;;;;;;5094099;28;20020;-83
2022/05/11 04:11:05;;;;;;;6.45;4.13;;;9.40;99.90;;;;;;5093628;28;20020;-83
2022/05/11 04:13:31;;;;;;;5.97;4.30;;;9.40;99.90;;;;;;5069595;28;20024;-83
2022/05/11 04:15:57;;;;;;;4.85;4.05;;;9.40;99.90;;;;;;5093643;28;20016;-83
2022/05/11 04:18:22;;;;;;;4.90;3.70;;;9.40;99.90;;;;;;5093275;28;20031;-83
2022/05/11 04:20:48;;;;;;;5.60;4.07;;;9.40;99.90;;;;;;5095540;28;20024;-84
2022/05/11 04:23:14;;;;;;;5.65;4.25;;;9.40;99.90;;;;;;5093102;28;20025;-84
2022/05/11 04:25:40;;;;;;;6.43;4.10;;;9.40;99.90;;;;;;5091456;28;20136;-83
2022/05/11 04:28:11;;;;;;;7.07;4.32;;;9.40;99.90;;;;;;5091694;28;20078;-84
2022/05/11 04:30:38;;;;;;;7.57;4.20;;;9.40;99.90;;;;;;5091431;28;20024;-84
2022/05/11 04:33:05;;;;;;;5.35;3.90;;;9.40;99.90;;;;;;5091338;28;20035;-83
2022/05/11 04:35:31;;;;;;;6.57;4.03;;;9.40;99.90;;;;;;5093563;28;20024;-83
2022/05/11 04:37:57;;;;;;;5.95;4.07;;;9.40;99.90;;;;;;5093220;28;20020;-83
2022/05/11 04:40:24;;;;;;;8.30;5.00;;;9.40;99.90;;;;;;5093660;28;20097;-83
2022/05/11 04:42:50;;;;;;;6.88;5.10;;;9.50;99.90;;;;;;5093506;28;20020;-83
2022/05/11 04:45:16;;;;;;;8.07;5.63;;;9.50;99.90;;;;;;5093196;28;20070;-83
2022/05/11 04:47:42;;;;;;;5.85;4.53;;;9.60;99.90;;;;;;5075118;28;20031;-83
2022/05/11 04:50:09;;;;;;;6.80;4.78;;;9.60;99.90;;;;;;5093270;28;20074;-83
2022/05/11 04:52:35;;;;;;;6.07;4.57;;;9.70;99.90;;;;;;5075000;28;20020;-83
2022/05/11 04:55:02;;;;;;;6.72;4.40;;;9.70;99.90;;;;;;5075423;28;20032;-83
2022/05/11 04:57:27;;;;;;;6.28;4.68;;;9.80;99.90;;;;;;5093502;28;20069;-83
2022/05/11 04:59:53;;;;;;;7.95;4.25;;;9.90;99.90;;;;;;5094312;28;20024;-83
2022/05/11 05:02:22;;;;;;;8.68;4.65;;;9.90;99.90;;;;;;5075103;28;20032;-83
2022/05/11 05:04:48;;;;;;;6.78;5.13;;;9.90;99.90;;;;;;5093520;28;20031;-83
2022/05/11 05:07:14;;;;;;;7.22;5.10;;;10.00;99.90;;;;;;5093821;28;20027;-83
2022/05/11 05:09:41;;;;;;;6.95;4.50;;;10.00;99.90;;;;;;5075114;28;20034;-83
2022/05/11 05:12:08;;;;;;;6.63;4.68;;;10.10;99.90;;;;;;5075956;28;20024;-83
2022/05/11 05:14:34;;;;;;;7.60;5.15;;;10.20;99.90;;;;;;5097156;28;20020;-83
2022/05/11 05:17:01;;;;;;;7.78;5.20;;;10.20;99.90;;;;;;5096957;28;20021;-83
2022/05/11 05:19:28;;;;;;;7.05;4.70;;;10.30;99.90;;;;;;5078575;28;20077;-83
2022/05/11 05:21:54;;;;;;;6.28;4.88;;;10.30;99.90;;;;;;5078459;28;20024;-83
2022/05/11 05:24:20;;;;;;;6.43;4.40;;;10.30;99.90;;;;;;5096744;28;20035;-83
2022/05/11 05:26:45;;;;;;;6.55;4.38;;;10.40;99.90;;;;;;5097480;28;20107;-83
2022/05/11 05:31:55;;;;;;;5.88;4.05;;;10.50;99.90;;;;;;5096919;28;20506;-83
2022/05/11 05:34:21;;;;;;;6.43;4.40;;;10.60;99.90;;;;;;5096348;28;20032;-83
2022/05/11 05:36:47;;;;;;;6.38;4.25;;;10.70;99.90;;;;;;5096389;28;20040;-83
2022/05/11 05:39:13;;;;;;;6.88;5.10;;;10.70;99.90;;;;;;5096368;28;20027;-83
2022/05/11 05:41:39;;;;;;;6.07;4.45;;;10.80;99.90;;;;;;5078245;28;20048;-83
2022/05/11 05:44:06;;;;;;;10.43;5.22;;;10.80;99.90;;;;;;5096109;28;20030;-83
2022/05/11 05:46:36;;;;;;;7.30;5.38;;;10.90;99.90;;;;;;5078069;28;20395;-83
2022/05/11 05:49:03;;;;;;;8.43;6.43;;;10.90;99.90;;;;;;5078297;28;20020;-83
2022/05/11 05:51:29;;;;;;;9.20;6.60;;;11.00;99.90;;;;;;5095809;28;20028;-83
2022/05/11 05:53:55;;;;;;;9.77;6.80;;;11.00;99.90;;;;;;5096780;28;20376;-83
2022/05/11 05:56:21;;;;;;;14.52;8.88;;;11.10;99.90;;;;;;5077911;28;20016;-83
2022/05/11 05:58:47;;;;;;;11.68;8.45;;;11.20;99.90;;;;;;5077944;28;20460;-83
2022/05/11 06:01:14;;;;;;;13.85;8.90;;;11.20;99.90;;;;;;5096207;28;20380;-83
2022/05/11 06:03:40;;;;;;;12.02;8.50;;;11.30;99.90;;;;;;5096047;28;20395;-83
2022/05/11 06:06:07;;;;;;;14.52;9.15;;;11.30;99.90;;;;;;5077663;28;20021;-83
2022/05/11 06:08:33;;;;;;;13.73;9.02;;;11.30;99.90;;;;;;5077718;28;20059;-83
2022/05/11 06:10:59;;;;;;;15.82;8.77;;;11.40;99.90;;;;;;5095822;28;20027;-83
2022/05/11 06:13:26;;;;;;;10.23;7.57;;;11.40;99.90;;;;;;5077589;28;20036;-83
2022/05/11 06:15:54;;;;;;;11.52;7.20;;;11.40;99.90;;;;;;5077652;28;20028;-83
2022/05/11 06:18:21;;;;;;;10.07;6.75;;;11.40;99.90;;;;;;5095911;28;20103;-83
2022/05/11 06:20:51;;;;;;;12.15;7.50;;;11.40;99.90;;;;;;5077352;28;20502;-83
2022/05/11 06:23:20;;;;;;;10.50;6.82;;;11.50;99.90;;;;;;5077773;28;20396;-84
2022/05/11 06:25:49;;;;;;;8.90;6.50;;;11.60;99.90;;;;;;5077320;28;20024;-83
2022/05/11 06:28:15;;;;;;;12.93;8.02;;;11.70;99.90;;;;;;5077298;28;20114;-83
2022/05/11 06:30:41;;;;;;;12.43;7.85;;;11.80;99.90;;;;;;5077431;28;20391;-84
2022/05/11 06:33:07;;;;;;;15.05;7.78;;;11.90;99.90;;;;;;5095330;28;20027;-83
2022/05/11 06:35:33;;;;;;;12.25;7.50;;;12.00;99.90;;;;;;5077261;28;20027;-83
2022/05/11 06:38:07;;;;;;;10.27;7.43;;;12.10;99.90;;;;;;5077273;28;20027;-84
2022/05/11 06:40:33;;;;;;;12.70;7.60;;;12.20;99.90;;;;;;5077319;28;20047;-84
2022/05/11 06:43:01;;;;;;;10.88;6.75;;;12.30;99.90;;;;;;5096201;28;20050;-84
2022/05/11 06:45:30;;;;;;;10.95;7.95;;;12.40;99.90;;;;;;5095286;28;20042;-84
2022/05/11 06:47:56;;;;;;;11.80;7.65;;;12.60;99.90;;;;;;5077482;28;20377;-84
2022/05/11 06:50:24;;;;;;;8.73;6.53;;;12.70;99.90;;;;;;5077866;28;20042;-84
2022/05/11 06:52:51;;;;;;;8.05;6.57;;;12.80;99.90;;;;;;5076756;28;20027;-84
2022/05/11 07:00:46;;;;;;;10.07;6.20;;;13.30;99.90;;;;;;5095185;28;20035;-84
2022/05/11 07:03:13;;;;;;;10.20;6.60;;;13.40;99.90;;;;;;5076577;28;20024;-83
2022/05/11 07:05:39;;;;;;;8.77;6.45;;;13.60;99.90;;;;;;5076779;28;20490;-84
2022/05/11 07:08:05;;;;;;;7.72;6.13;;;13.70;99.90;;;;;;5094636;28;20495;-84
2022/05/11 07:10:35;;;;;;;9.73;6.85;;;13.80;99.90;;;;;;5076405;28;20056;-84
2022/05/11 07:13:01;;;;;;;10.05;6.40;;;14.00;99.90;;;;;;5076128;28;20467;-84
2022/05/11 07:15:27;;;;;;;11.80;6.70;;;14.10;99.90;;;;;;5076298;28;20158;-84
2022/05/11 07:17:59;;;;;;;8.48;6.00;;;14.30;99.90;;;;;;5094690;28;20016;-84
2022/05/11 07:20:27;;;;;;;11.00;6.43;;;14.40;99.90;;;;;;5076314;28;20043;-84
2022/05/11 07:22:54;;;;;;;11.98;7.57;;;14.60;99.90;;;;;;5094252;28;20024;-84
2022/05/11 07:25:22;;;;;;;11.27;6.35;;;14.80;99.90;;;;;;5094650;28;20097;-84
2022/05/11 07:27:48;;;;;;;10.80;6.30;;;14.90;99.90;;;;;;5076129;28;20077;-84
2022/05/11 07:30:19;;;;;;;9.50;5.75;;;15.10;99.90;;;;;;5076028;28;20020;-84
2022/05/11 07:32:45;;;;;;;8.00;5.80;;;15.30;99.90;;;;;;5075969;28;20121;-84
2022/05/11 07:35:10;;;;;;;6.95;5.20;;;15.50;99.90;;;;;;5075593;28;20128;-84
2022/05/11 07:37:36;;;;;;;8.50;6.30;;;15.60;99.90;;;;;;5076161;28;20118;-84
2022/05/11 07:40:04;;;;;;;7.28;5.35;;;15.70;99.90;;;;;;5075968;28;20024;-84
2022/05/11 07:42:30;;;;;;;6.47;4.05;;;15.90;99.90;;;;;;5093990;28;20441;-84
2022/05/11 07:44:56;;;;;;;7.13;3.92;;;16.00;99.90;;;;;;5075726;28;20042;-84
2022/05/11 07:47:22;;;;;;;7.40;4.38;;;16.20;99.90;;;;;;5075684;28;20027;-84
2022/05/11 07:49:48;;;;;;;7.45;4.65;;;16.30;99.90;;;;;;5075918;28;20020;-84
2022/05/11 07:52:14;;;;;;;6.05;4.75;;;16.40;99.90;;;;;;5093617;28;20079;-84
2022/05/11 07:54:41;;;;;;;6.90;5.22;;;16.60;99.90;;;;;;5075773;28;20028;-84
2022/05/11 07:59:52;;;;;;;7.28;5.68;;;16.90;99.90;;;;;;5094386;28;20035;-84
2022/05/11 08:02:19;;;;;;;9.27;6.03;;;17.10;99.90;;;;;;5075511;28;20546;-84
2022/05/11 08:04:45;;;;;;;9.07;5.93;;;17.20;99.90;;;;;;5075572;28;20059;-84
2022/05/11 08:07:15;;;;;;;6.13;4.93;;;17.30;99.60;;;;;;5076079;28;20024;-84
2022/05/11 08:09:41;;;;;;;8.20;4.82;;;17.50;99.10;;;;;;5075635;28;20475;-84
2022/05/11 08:12:08;;;;;;;6.85;4.57;;;17.60;98.30;;;;;;5075324;28;20039;-84
2022/05/11 08:14:34;;;;;;;7.15;4.80;;;17.70;98.10;;;;;;5075368;28;20115;-84
2022/05/11 08:16:59;;;;;;;9.63;4.10;;;17.90;97.60;;;;;;5075567;28;20125;-84
2022/05/11 08:19:27;;;;;;;8.43;4.93;;;18.10;96.70;;;;;;5076039;28;20024;-84
2022/05/11 08:21:54;;;;;;;6.40;5.18;;;18.30;96.40;;;;;;5076752;28;20031;-84
2022/05/11 08:24:22;;;;;;;6.95;5.07;;;18.40;96.40;;;;;;5076428;28;20397;-84
2022/05/11 08:26:51;;;;;;;6.90;5.10;;;18.60;96.40;;;;;;5075617;28;20074;-84
2022/05/11 08:34:49;;;;;;;7.00;4.65;;;19.10;93.50;;;;;;5093660;28;20122;-84
2022/05/11 08:37:15;;;;;;;10.05;5.07;;;19.30;92.00;;;;;;5075381;28;20027;-84
2022/05/11 08:39:42;;;;;;;6.90;5.25;;;19.40;92.10;;;;;;5075120;28;20537;-84
2022/05/11 08:42:08;;;;;;;8.15;4.70;;;19.50;92.90;;;;;;5075120;28;20036;-84
2022/05/11 08:44:37;;;;;;;5.45;4.15;;;19.70;92.90;;;;;;5093136;28;20392;-84
2022/05/11 08:47:25;;;;;;;6.40;3.80;;;19.90;91.60;;;;;;5076201;28;20111;-84
2022/05/11 08:49:54;;;;;;;6.97;4.10;;;20.10;89.30;;;;;;5097031;28;20017;-84
2022/05/11 08:52:19;;;;;;;5.50;3.70;;;20.20;88.30;;;;;;5078812;28;20031;-84
2022/05/11 08:54:54;;;;;;;5.55;4.50;;;20.40;84.60;;;;;;5097363;28;20024;-84
2022/05/11 08:57:23;;;;;;;10.48;4.20;;;20.50;83.50;;;;;;5078975;28;20028;-84
2022/05/11 08:59:53;;;;;;;6.70;4.10;;;20.60;85.70;;;;;;5097075;28;20427;-84
2022/05/11 09:02:24;;;;;;;6.07;4.30;;;20.70;82.60;;;;;;5097625;28;20028;-84
2022/05/11 09:04:58;;;;;;;9.45;4.70;;;20.90;81.30;;;;;;5080584;28;20270;-84
2022/05/11 09:07:24;;;;;;;6.80;4.85;;;21.00;79.40;;;;;;5096874;28;20028;-84
2022/05/11 09:09:55;;;;;;;5.72;4.15;;;21.20;79.10;;;;;;5078938;28;20027;-84
2022/05/11 09:12:21;;;;;;;7.53;4.03;;;21.30;77.50;;;;;;5096619;28;20028;-84
2022/05/11 09:14:56;;;;;;;5.70;4.45;;;21.40;75.60;;;;;;5078648;28;20054;-84
2022/05/11 09:17:34;;;;;;;6.15;4.10;;;21.40;74.70;;;;;;5078670;28;20020;-84
2022/05/11 09:20:08;;;;;;;5.13;3.85;;;21.40;73.60;;;;;;5078511;28;20032;-84
2022/05/11 09:22:40;;;;;;;6.00;3.53;;;21.50;71.50;;;;;;5078894;28;20024;-84
2022/05/11 09:25:20;;;;;;;4.60;3.15;;;21.70;70.70;;;;;;5096992;28;20047;-84
2022/05/11 09:27:47;;;;;;;4.43;2.90;;;21.80;68.00;;;;;;5079148;28;20031;-84
2022/05/11 09:30:23;;;;;;;3.85;2.40;;;22.00;68.10;;;;;;5096481;28;20031;-84
2022/05/11 09:32:53;;;;;;;2.80;1.92;;;22.10;65.50;;;;;;5096287;28;20059;-83
2022/05/11 09:35:23;;;;;;;2.50;2.00;;;22.30;61.00;;;;;;5096343;28;20020;-83
2022/05/11 09:37:57;;;;;;;3.08;1.92;;;22.40;60.40;;;;;;5078260;28;20468;-83
2022/05/11 09:40:23;;;;;;;3.33;2.22;;;22.60;61.40;;;;;;5078213;28;20115;-83
2022/05/11 09:42:48;;;;;;;3.42;1.83;;;22.80;59.40;;;;;;5078174;28;20059;-83
2022/05/11 09:45:47;;;;;;;3.40;2.10;;;22.90;57.60;;;;;;5096091;28;20036;-84
2022/05/11 09:48:24;;;;;;;3.95;1.52;;;23.10;57.90;;;;;;5096171;28;20476;-84
2022/05/11 09:50:55;;;;;;;3.45;2.00;;;23.10;54.60;;;;;;5095897;28;20036;-83
2022/05/11 09:53:37;;;;;;;6.38;2.40;;;23.30;54.60;;;;;;5096409;28;20031;-83
2022/05/11 09:56:36;;;;;;;3.35;2.67;;;23.40;57.30;;;;;;5096075;28;20039;-83
2022/05/11 09:59:22;;;;;;;5.07;2.35;;;23.50;59.90;;;;;;5024083;28;20502;-83
2022/05/11 10:01:51;;;;;;;3.60;2.38;;;23.60;59.10;;;;;;5095843;28;20028;-83
2022/05/11 10:04:20;;;;;;;3.35;2.20;;;23.80;57.30;;;;;;5095563;28;20031;-83
2022/05/11 10:06:50;;;;;;;3.90;2.60;;;23.90;57.30;;;;;;5095949;28;20383;-83
2022/05/11 10:09:26;;;;;;;3.65;2.30;;;24.00;56.10;;;;;;5095558;28;20114;-83
2022/05/11 10:11:51;;;;;;;4.45;2.97;;;24.20;57.00;;;;;;5077394;28;20086;-83
2022/05/11 10:23:07;;;;;;;5.60;2.20;;;24.50;53.90;;;;;;5096294;28;20042;-83
2022/05/11 10:25:46;;;;;;;2.63;1.45;;;24.70;56.00;;;;;;5077227;28;20020;-83
2022/05/11 10:28:24;;;;;;;2.88;2.00;;;24.80;54.10;;;;;;5077105;28;20529;-83
2022/05/11 10:30:58;;;;;;;2.88;1.90;;;24.90;52.40;;;;;;5077506;28;20035;-83
2022/05/11 10:33:39;;;;;;;2.50;1.77;;;25.10;51.80;;;;;;5077630;28;20024;-84
2022/05/11 10:36:08;;;;;;;2.58;1.67;;;25.20;52.10;;;;;;5077331;28;20107;-83
2022/05/11 10:38:58;;;;;;;3.28;1.77;;;25.30;51.80;;;;;;5077309;28;20074;-84
2022/05/11 10:41:45;;;;;;;3.40;1.88;;;25.40;50.30;;;;;;5077508;28;20040;-83
2022/05/11 10:44:21;;;;;;;4.57;1.67;;;25.50;47.90;;;;;;5094997;28;20069;-83
2022/05/11 10:47:19;;;;;;;5.15;2.05;;;25.40;49.80;;;;;;5095198;28;20026;-83
2022/05/11 10:50:29;;;;;;;3.92;1.88;;;25.50;51.20;;;;;;5095655;28;20024;-83
2022/05/11 10:53:13;;;;;;;4.77;2.00;;;25.50;48.30;;;;;;5063271;28;20094;-84
2022/05/11 10:56:07;;;;;;;2.97;1.80;;;25.50;48.60;;;;;;5076871;28;20482;-84
2022/05/11 10:58:54;;;;;;;3.55;1.70;;;25.60;49.60;;;;;;5076923;28;20063;-83
2022/05/11 11:01:22;;;;;;;3.85;2.58;;;25.60;50.00;;;;;;5078472;28;20016;-84
2022/05/11 11:04:06;;;;;;;2.42;1.70;;;25.50;49.80;;;;;;5079119;28;20051;-84
2022/05/11 11:09:45;;;;;;;2.95;1.73;;;25.80;50.70;;;;;;5094282;28;20035;-83
2022/05/11 11:12:27;;;;;;;3.25;1.70;;;26.00;49.30;;;;;;5076418;28;20028;-83
2022/05/11 11:14:56;;;;;;;3.05;1.67;;;26.10;49.00;;;;;;5094625;28;20016;-83
2022/05/11 11:17:25;;;;;;;5.40;1.80;;;26.30;49.10;;;;;;5095051;28;20093;-84
2022/05/11 11:19:53;;;;;;;6.68;2.00;;;26.40;48.30;;;;;;5077211;28;20025;-83
2022/05/11 11:22:19;;;;;;;5.15;1.90;;;26.40;48.80;;;;;;5076579;28;20024;-83
2022/05/11 11:25:14;;;;;;;3.33;2.08;;;26.40;48.10;;;;;;5077248;28;20399;-83
2022/05/11 11:28:10;;;;;;;2.90;1.77;;;26.50;47.90;;;;;;5052284;28;20036;-83
2022/05/11 11:30:38;;;;;;;3.25;2.08;;;26.60;46.30;;;;;;5084886;28;20040;-83
2022/05/11 11:33:13;;;;;;;3.80;1.92;;;26.60;47.90;;;;;;5076065;28;20024;-83
2022/05/11 11:35:41;;;;;;;2.83;1.90;;;26.70;48.40;;;;;;5096134;28;20494;-84
2022/05/11 11:38:07;;;;;;;3.33;1.88;;;26.80;46.80;;;;;;5077381;28;20124;-83
2022/05/11 11:40:34;;;;;;;5.78;2.10;;;26.90;47.40;;;;;;5094636;28;20095;-83
2022/05/11 11:43:44;;;;;;;7.28;1.67;;;26.90;48.10;;;;;;5094482;28;20028;-83
2022/05/11 11:45:52;;;;;;;4.28;1.77;;;27.00;47.70;;;;;;5083287;28;20047;-84
2022/05/11 11:48:24;;;;;;;5.50;1.80;;;27.10;48.40;;;;;;5076296;28;20032;-83
2022/05/11 11:50:53;;;;;;;5.47;1.80;;;27.00;46.50;;;;;;5094458;28;20020;-84
2022/05/11 11:53:23;;;;;;;3.72;1.55;;;27.00;45.70;;;;;;5076586;28;20123;-84
2022/05/11 11:55:49;;;;;;;4.90;1.60;;;27.00;46.00;;;;;;5078257;28;20023;-84
2022/05/11 11:58:26;;;;;;;4.93;1.80;;;27.00;45.80;;;;;;5098085;28;20391;-83
2022/05/11 12:01:07;;;;;;;4.57;1.90;;;27.00;45.80;;;;;;5094658;28;20016;-83
2022/05/11 12:03:37;;;;;;;3.78;1.88;;;27.10;46.50;;;;;;5094699;28;20024;-83
2022/05/11 12:17:39;;;;;;;3.45;1.58;;;27.30;46.20;;;;;;5105395;28;20129;-83
2022/05/11 12:20:10;;;;;;;3.35;2.22;;;27.50;47.60;;;;;;5092231;28;20032;-83
2022/05/11 12:22:43;;;;;;;4.55;1.40;;;27.70;45.50;;;;;;5079059;28;20032;-82
2022/05/11 12:25:29;;;;;;;5.75;1.80;;;27.80;46.40;;;;;;5063927;28;20035;-83
2022/05/11 12:27:57;;;;;;;2.92;1.73;;;27.90;46.90;;;;;;5059844;28;20028;-83
2022/05/11 12:30:32;;;;;;;2.65;1.70;;;28.00;43.70;;;;;;5059897;28;20020;-83
2022/05/11 12:33:06;;;;;;;3.75;1.85;;;28.20;46.40;;;;;;5059767;28;20032;-83
2022/05/11 12:35:41;;;;;;;3.90;1.90;;;28.30;43.60;;;;;;5061417;28;20108;-82
2022/05/11 12:38:09;;;;;;;3.22;1.65;;;28.30;46.30;;;;;;5083554;28;20028;-83
2022/05/11 12:40:48;;;;;;;6.35;2.15;;;28.40;44.50;;;;;;5098709;28;20069;-82
2022/05/11 12:43:29;;;;;;;3.85;1.55;;;28.40;45.70;;;;;;5100432;28;20072;-83
2022/05/11 12:45:57;;;;;;;2.92;1.75;;;28.50;43.40;;;;;;5083413;28;20040;-84
2022/05/11 12:48:36;;;;;;;3.65;2.22;;;28.60;43.90;;;;;;5081117;28;20020;-81
2022/05/11 12:51:09;;;;;;;3.13;1.55;;;28.60;43.30;;;;;;5098536;28;20034;-81
2022/05/11 12:53:38;;;;;;;2.30;1.50;;;28.70;45.00;;;;;;5098339;28;20386;-80
2022/05/11 12:56:43;;;;;;;5.95;1.70;;;28.70;44.70;;;;;;5099310;28;20020;-81
2022/05/11 12:59:21;;;;;;;1.90;1.20;;;28.90;42.30;;;;;;5067855;28;20028;-80
2022/05/11 13:01:47;;;;;;;4.05;1.40;;;29.00;42.70;;;;;;5080669;28;20074;-80
2022/05/11 13:04:21;;;;;;;3.42;1.60;;;29.10;42.00;;;;;;5101902;28;20422;-80
2022/05/11 13:06:49;;;;;;;2.30;1.30;;;29.20;40.80;;;;;;5087753;28;20050;-80
2022/05/11 13:09:24;;;;;;;3.17;1.70;;;29.30;40.30;;;;;;5098148;28;20026;-80
2022/05/11 13:11:50;;;;;;;2.95;1.50;;;29.30;41.50;;;;;;5096959;28;20475;-80
2022/05/11 13:14:17;;;;;;;;;;;29.10;42.80;;;;;;5079224;28;20462;-80
2022/05/11 13:17:04;;;;;;;;;;;29.10;41.10;;;;;;5110568;28;19911;-79
2022/05/11 13:19:32;;;;;;;;;;;29.30;42.30;;;;;;5099243;28;20024;-79
2022/05/11 13:22:10;;;;;;;;;;;29.40;40.70;;;;;;5058653;28;20028;-79
2022/05/11 13:24:47;;;;;;;2.60;1.40;;;29.50;40.90;;;;;;5059310;28;20039;-80
2022/05/11 13:27:32;;;;;;;;;;;29.70;40.90;;;;;;5096656;28;20052;-80
2022/05/11 13:30:32;;;;;;;3.17;1.50;;;29.90;41.10;;;;;;5097213;28;20046;-80
2022/05/11 13:33:03;;;;;;;2.70;1.40;;;30.00;42.30;;;;;;5092189;28;20059;-79
2022/05/11 13:35:30;;;;;;;4.95;1.75;;;30.10;42.20;;;;;;5096277;28;20077;-79
2022/05/11 13:38:02;;;;;;;2.50;1.70;;;29.90;40.20;;;;;;5097093;28;20368;-78
2022/05/11 13:40:37;;;;;;;2.45;1.48;;;29.90;40.50;;;;;;5096478;28;20073;-79
2022/05/11 13:43:14;;;;;;;3.88;1.42;;;30.00;42.50;;;;;;5078234;28;20414;-79
2022/05/11 13:45:57;;;;;;;4.15;1.80;;;30.10;41.20;;;;;;5077719;28;20601;-79
2022/05/11 13:48:30;;;;;;;2.55;1.48;;;30.20;39.80;;;;;;5078319;28;20442;-79
2022/05/11 13:51:06;;;;;;;13.88;2.25;;;30.10;42.90;;;;;;5077738;28;20027;-78